createdAt,value
2022-11-05T00:02:50.442Z,62.10
2022-11-05T00:05:44.174Z,61.80
2022-11-05T00:08:37.653Z,62.20
2022-11-05T00:11:17.907Z,61.30
2022-11-05T00:14:11.465Z,61.00
2022-11-05T00:16:46.325Z,60.80
2022-11-05T00:19:21.172Z,60.40
2022-11-05T00:22:14.573Z,60.10
2022-11-05T00:25:08.045Z,60.20
2022-11-05T00:27:45.308Z,60.20
2022-11-05T00:30:25.703Z,59.20
2022-11-05T00:33:04.688Z,59.90
2022-11-05T00:35:39.512Z,59.70
2022-11-05T00:38:14.576Z,59.80
2022-11-05T00:40:49.395Z,60.00
2022-11-05T00:43:43.097Z,60.10
2022-11-05T00:46:17.991Z,60.10
2022-11-05T00:49:11.589Z,59.80
2022-11-05T00:51:46.458Z,60.60
2022-11-05T00:54:21.313Z,59.30
2022-11-05T00:56:59.421Z,59.00
2022-11-05T00:59:38.327Z,59.00
2022-11-05T01:02:13.296Z,59.20
2022-11-05T01:04:48.251Z,59.50
2022-11-05T01:07:23.112Z,59.60
2022-11-05T01:09:58.019Z,59.90
2022-11-05T01:12:33.066Z,60.20
2022-11-05T01:15:08.669Z,60.50
2022-11-05T01:17:43.583Z,59.90
2022-11-05T01:20:18.487Z,59.30
2022-11-05T01:22:53.347Z,58.40
2022-11-05T01:25:28.337Z,58.40
2022-11-05T01:28:04.196Z,58.10
2022-11-05T01:30:39.763Z,57.30
2022-11-05T01:33:14.844Z,57.50
2022-11-05T01:35:51.805Z,57.60
2022-11-05T01:38:26.694Z,58.00
2022-11-05T01:41:01.732Z,58.30
2022-11-05T01:43:52.175Z,58.70
2022-11-05T01:46:39.848Z,58.50
2022-11-05T01:49:33.363Z,58.90
2022-11-05T01:52:08.204Z,59.10
2022-11-05T01:54:43.777Z,58.70
2022-11-05T01:57:18.835Z,58.10
2022-11-05T01:59:58.637Z,58.00
2022-11-05T02:02:33.765Z,58.00
2022-11-05T02:05:12.230Z,58.20
2022-11-05T02:07:48.369Z,57.70
2022-11-05T02:10:23.935Z,57.50
2022-11-05T02:12:59.336Z,57.80
2022-11-05T02:15:52.983Z,58.30
2022-11-05T02:18:56.635Z,58.70
2022-11-05T02:21:56.028Z,59.50
2022-11-05T02:25:04.534Z,59.70
2022-11-05T02:28:27.175Z,59.90
2022-11-05T02:31:17.520Z,59.50
2022-11-05T02:34:12.748Z,59.40
2022-11-05T02:36:58.391Z,60.40
2022-11-05T02:40:20.677Z,59.60
2022-11-05T02:43:03.574Z,60.10
2022-11-05T02:46:06.088Z,60.60
2022-11-05T02:49:09.030Z,60.90
2022-11-05T02:51:59.249Z,61.50
2022-11-05T02:54:50.514Z,61.80
2022-11-05T02:57:29.187Z,62.50
2022-11-05T03:00:35.072Z,62.50
2022-11-05T03:03:35.942Z,62.30
2022-11-05T03:06:13.451Z,62.60
2022-11-05T03:09:36.167Z,62.80
2022-11-05T03:12:43.335Z,63.30
2022-11-05T03:15:47.625Z,64.30
2022-11-05T03:19:06.961Z,64.40
2022-11-05T03:21:56.658Z,65.00
2022-11-05T03:24:37.485Z,64.90
2022-11-05T03:27:20.511Z,65.50
2022-11-05T03:30:06.764Z,65.20
2022-11-05T03:32:49.756Z,65.70
2022-11-05T03:35:30.732Z,66.40
2022-11-05T03:38:15.634Z,66.40
2022-11-05T03:40:55.547Z,66.90
2022-11-05T03:43:35.157Z,67.00
2022-11-05T03:46:17.054Z,66.90
2022-11-05T03:48:55.910Z,67.00
2022-11-05T03:52:17.489Z,67.30
2022-11-05T03:54:52.522Z,66.70
2022-11-05T03:57:33.077Z,66.20
2022-11-05T04:00:10.260Z,66.00
2022-11-05T04:02:47.927Z,65.90
2022-11-05T04:05:23.035Z,66.30
2022-11-05T04:08:16.251Z,67.20
2022-11-05T04:11:09.740Z,67.10
2022-11-05T04:13:44.617Z,67.60
2022-11-05T04:16:37.790Z,67.90
2022-11-05T04:19:12.622Z,68.10
2022-11-05T04:22:06.000Z,68.90
2022-11-05T04:24:40.931Z,68.70
2022-11-05T04:27:15.886Z,69.30
2022-11-05T04:30:09.213Z,69.10
2022-11-05T04:33:06.299Z,69.80
2022-11-05T04:35:47.360Z,69.80
2022-11-05T04:38:22.290Z,71.20
2022-11-05T04:41:16.461Z,71.60
2022-11-05T04:43:51.351Z,73.20
2022-11-05T04:46:26.265Z,73.80
2022-11-05T04:49:01.192Z,74.50
2022-11-05T04:51:36.098Z,74.70
2022-11-05T04:54:11.118Z,75.00
2022-11-05T04:56:46.042Z,75.30
2022-11-05T04:59:20.986Z,75.90
2022-11-05T05:01:56.000Z,76.30
2022-11-05T05:04:30.966Z,76.20
2022-11-05T05:07:05.899Z,75.80
2022-11-05T05:09:40.817Z,75.60
2022-11-05T05:12:15.893Z,75.30
2022-11-05T05:14:50.796Z,75.00
2022-11-05T05:17:25.856Z,75.00
2022-11-05T05:20:19.197Z,75.10
2022-11-05T05:22:55.112Z,75.20
2022-11-05T05:25:30.263Z,74.90
2022-11-05T05:28:06.149Z,75.20
2022-11-05T05:30:41.066Z,76.00
2022-11-05T05:33:16.937Z,75.30
2022-11-05T05:35:51.862Z,75.30
2022-11-05T05:38:26.831Z,75.50
2022-11-05T05:41:01.758Z,76.00
2022-11-05T05:43:36.713Z,75.60
2022-11-05T05:46:14.875Z,75.50
2022-11-05T05:48:51.742Z,75.40
2022-11-05T05:51:26.671Z,75.40
2022-11-05T05:54:01.504Z,75.50
2022-11-05T05:56:36.473Z,75.40
2022-11-05T05:59:12.239Z,74.70
2022-11-05T06:01:47.370Z,74.80
2022-11-05T06:04:22.407Z,75.00
2022-11-05T06:06:57.290Z,75.10
2022-11-05T06:09:32.153Z,74.80
2022-11-05T06:12:07.218Z,74.50
2022-11-05T06:14:42.177Z,75.10
2022-11-05T06:17:17.110Z,75.10
2022-11-05T06:19:52.138Z,75.20
2022-11-05T06:22:27.036Z,75.00
2022-11-05T06:25:01.978Z,75.50
2022-11-05T06:27:36.895Z,75.00
2022-11-05T06:30:12.184Z,74.70
2022-11-05T06:32:47.776Z,75.10
2022-11-05T06:35:22.764Z,75.00
2022-11-05T06:38:03.715Z,74.50
2022-11-05T06:40:38.699Z,74.60
2022-11-05T06:43:14.157Z,74.80
2022-11-05T06:45:49.459Z,75.20
2022-11-05T06:48:25.388Z,75.40
2022-11-05T06:51:00.526Z,75.10
2022-11-05T06:53:36.561Z,75.20
2022-11-05T06:56:11.523Z,75.20
2022-11-05T06:58:46.485Z,75.00
2022-11-05T07:01:21.486Z,74.10
2022-11-05T07:03:56.455Z,73.20
2022-11-05T07:06:36.703Z,72.70
2022-11-05T07:09:12.382Z,71.80
2022-11-05T07:11:47.334Z,72.40
2022-11-05T07:14:22.441Z,72.70
2022-11-05T07:16:57.782Z,72.30
2022-11-05T07:19:32.765Z,72.90
2022-11-05T07:22:07.805Z,72.80
2022-11-05T07:24:43.666Z,72.30
2022-11-05T07:27:18.611Z,72.40
2022-11-05T07:29:53.731Z,72.30
2022-11-05T07:32:28.624Z,72.10
2022-11-05T07:35:04.020Z,71.60
2022-11-05T07:37:47.640Z,71.50
2022-11-05T07:40:25.780Z,71.70
2022-11-05T07:43:02.063Z,72.20
2022-11-05T07:45:36.997Z,72.00
2022-11-05T07:48:11.916Z,71.10
2022-11-05T07:50:46.849Z,70.60
2022-11-05T07:53:21.738Z,71.00
2022-11-05T07:55:58.843Z,71.40
2022-11-05T07:58:35.119Z,71.70
2022-11-05T08:01:10.202Z,72.60
2022-11-05T08:03:45.310Z,71.80
2022-11-05T08:06:20.242Z,71.60
2022-11-05T08:08:55.251Z,71.40
2022-11-05T08:11:30.161Z,70.30
2022-11-05T08:14:05.145Z,70.30
2022-11-05T08:16:40.129Z,68.80
2022-11-05T08:19:15.047Z,69.40
2022-11-05T08:21:50.196Z,67.90
2022-11-05T08:24:25.147Z,70.00
2022-11-05T08:27:00.042Z,71.80
2022-11-05T08:29:34.965Z,73.90
2022-11-05T08:32:09.965Z,75.80
2022-11-05T08:34:44.888Z,75.90
2022-11-05T08:37:19.755Z,77.00
2022-11-05T08:39:54.714Z,77.40
2022-11-05T08:42:30.624Z,75.90
2022-11-05T08:45:06.235Z,76.60
2022-11-05T08:47:41.132Z,76.70
2022-11-05T08:50:16.808Z,76.40
2022-11-05T08:52:51.679Z,76.20
2022-11-05T08:55:27.642Z,76.60
2022-11-05T08:58:07.579Z,75.60
2022-11-05T09:00:45.701Z,74.40
2022-11-05T09:03:20.649Z,74.00
2022-11-05T09:05:55.661Z,74.50
2022-11-05T09:08:31.675Z,74.20
2022-11-05T09:11:07.640Z,74.20
2022-11-05T09:13:42.673Z,71.40
2022-11-05T09:16:22.479Z,70.10
2022-11-05T09:18:57.413Z,68.40
2022-11-05T09:21:32.805Z,68.90
2022-11-05T09:24:08.104Z,69.40
2022-11-05T09:26:43.106Z,68.40
2022-11-05T09:29:17.977Z,69.00
2022-11-05T09:31:52.847Z,68.70
2022-11-05T09:34:28.772Z,69.00
2022-11-05T09:37:04.075Z,69.00
2022-11-05T09:39:40.001Z,68.60
2022-11-05T09:42:18.174Z,70.20
2022-11-05T09:44:59.445Z,69.80
2022-11-05T09:47:40.573Z,69.40
2022-11-05T09:50:32.975Z,72.60
2022-11-05T09:53:13.369Z,75.00
2022-11-05T09:56:00.365Z,77.10
2022-11-05T09:58:43.583Z,77.20
2022-11-05T10:01:26.165Z,75.70
2022-11-05T10:04:07.173Z,72.20
2022-11-05T10:06:51.854Z,73.30
2022-11-05T10:09:51.608Z,69.50
2022-11-05T10:12:31.104Z,69.30
2022-11-05T10:16:09.916Z,67.90
2022-11-05T10:18:52.578Z,69.20
2022-11-05T10:21:51.577Z,68.70
2022-11-05T10:24:23.483Z,67.70
2022-11-05T10:26:58.678Z,67.50
2022-11-05T10:29:34.958Z,65.60
2022-11-05T10:32:35.994Z,66.00
2022-11-05T10:35:18.816Z,64.10
2022-11-05T10:37:53.747Z,64.50
2022-11-05T10:40:42.406Z,62.60
2022-11-05T10:43:27.457Z,62.40
2022-11-05T10:46:30.342Z,61.60
2022-11-05T10:49:34.778Z,61.20
2022-11-05T10:52:23.965Z,61.70
2022-11-05T10:55:10.836Z,60.70
2022-11-05T10:57:49.436Z,61.00
2022-11-05T11:00:28.344Z,61.50
2022-11-05T11:03:06.453Z,62.10
2022-11-05T11:05:41.494Z,59.40
2022-11-05T11:08:24.174Z,58.30
2022-11-05T11:11:03.935Z,58.40
2022-11-05T11:14:03.168Z,58.40
2022-11-05T11:16:57.342Z,60.10
2022-11-05T11:19:35.143Z,60.20
2022-11-05T11:22:15.861Z,56.70
2022-11-05T11:24:54.054Z,56.60
2022-11-05T11:27:33.434Z,56.40
2022-11-05T11:30:18.448Z,57.60
2022-11-05T11:33:07.172Z,57.30
2022-11-05T11:35:46.431Z,56.20
2022-11-05T11:38:33.955Z,53.20
2022-11-05T11:41:17.773Z,50.00
2022-11-05T11:44:09.665Z,48.60
2022-11-05T11:46:49.930Z,49.20
2022-11-05T11:49:56.196Z,46.90
2022-11-05T11:52:35.353Z,44.90
2022-11-05T11:55:13.260Z,44.80
2022-11-05T11:58:06.616Z,43.60
2022-11-05T12:00:46.816Z,43.20
2022-11-05T12:03:50.061Z,43.00
2022-11-05T12:07:04.858Z,42.50
2022-11-05T12:10:20.885Z,42.90
2022-11-05T12:13:20.991Z,43.50
2022-11-05T12:16:05.108Z,43.40
2022-11-05T12:18:58.079Z,44.30
2022-11-05T12:21:52.145Z,44.20
2022-11-05T12:24:58.021Z,44.00
2022-11-05T12:28:01.445Z,42.30
2022-11-05T12:31:23.004Z,42.20
2022-11-05T12:34:17.613Z,41.90
2022-11-05T12:37:28.470Z,42.20
2022-11-05T12:40:51.671Z,39.20
2022-11-05T12:44:08.134Z,37.70
2022-11-05T12:46:54.635Z,36.90
2022-11-05T12:50:01.625Z,36.80
2022-11-05T12:53:04.865Z,35.90
2022-11-05T12:55:48.851Z,35.90
2022-11-05T12:58:48.780Z,36.20
2022-11-05T13:01:34.583Z,35.00
2022-11-05T13:04:39.718Z,36.00
2022-11-05T13:07:27.496Z,35.20
2022-11-05T13:10:35.513Z,34.20
2022-11-05T13:13:26.366Z,34.50
2022-11-05T13:16:15.798Z,34.80
2022-11-05T13:19:12.149Z,34.90
2022-11-05T13:22:11.930Z,35.40
2022-11-05T13:24:51.649Z,34.50
2022-11-05T13:28:04.985Z,34.40
2022-11-05T13:30:46.982Z,34.80
2022-11-05T13:33:37.736Z,35.30
2022-11-05T13:36:55.480Z,35.80
2022-11-05T13:39:43.057Z,35.60
2022-11-05T13:42:54.428Z,35.70
2022-11-05T13:45:47.657Z,36.20
2022-11-05T13:48:41.520Z,35.60
2022-11-05T13:52:08.297Z,35.80
2022-11-05T13:54:43.105Z,35.60
2022-11-05T13:57:48.048Z,35.30
2022-11-05T14:00:26.989Z,35.70
2022-11-05T14:03:20.212Z,36.00
2022-11-05T14:06:07.930Z,36.50
2022-11-05T14:08:46.714Z,36.50
2022-11-05T14:11:26.173Z,36.70
2022-11-05T14:14:17.293Z,37.00
2022-11-05T14:17:13.852Z,37.30
2022-11-05T14:20:04.456Z,37.70
2022-11-05T14:22:41.770Z,37.90
2022-11-05T14:25:19.770Z,37.90
2022-11-05T14:27:58.160Z,38.30
2022-11-05T14:30:47.092Z,38.60
2022-11-05T14:33:25.016Z,38.80
2022-11-05T14:36:21.419Z,38.90
2022-11-05T14:39:12.916Z,39.00
2022-11-05T14:42:16.865Z,39.40
2022-11-05T14:45:09.887Z,38.90
2022-11-05T14:47:55.580Z,39.10
2022-11-05T14:50:39.528Z,39.40
2022-11-05T14:53:38.281Z,39.40
2022-11-05T14:56:17.560Z,39.70
2022-11-05T14:59:24.381Z,39.90
2022-11-05T15:02:14.616Z,40.00
2022-11-05T15:04:52.658Z,40.10
2022-11-05T15:07:37.472Z,40.10
2022-11-05T15:10:17.569Z,40.10
2022-11-05T15:13:01.773Z,40.30
2022-11-05T15:15:44.232Z,41.00
2022-11-05T15:18:33.429Z,40.80
2022-11-05T15:21:15.123Z,40.90
2022-11-05T15:23:56.313Z,41.00
2022-11-05T15:27:18.572Z,41.30
2022-11-05T15:29:53.908Z,41.00
2022-11-05T15:32:28.946Z,41.20
2022-11-05T15:35:19.093Z,41.50
2022-11-05T15:38:02.023Z,41.50
2022-11-05T15:40:37.602Z,41.40
2022-11-05T15:43:19.404Z,41.30
2022-11-05T15:46:05.025Z,41.20
2022-11-05T15:48:40.448Z,40.80
2022-11-05T15:51:16.977Z,40.30
2022-11-05T15:56:58.468Z,40.50
2022-11-05T15:59:35.044Z,40.40
2022-11-05T16:02:28.717Z,40.60
2022-11-05T16:05:11.825Z,40.80
2022-11-05T16:07:48.268Z,40.40
2022-11-05T16:10:38.108Z,40.60
2022-11-05T16:13:41.062Z,40.50
2022-11-05T16:16:16.018Z,40.50
2022-11-05T16:18:51.493Z,40.50
2022-11-05T16:21:26.502Z,40.70
2022-11-05T16:24:01.348Z,40.70
2022-11-05T16:29:55.469Z,41.10
2022-11-05T16:32:31.793Z,41.10
2022-11-05T16:35:15.716Z,41.20
2022-11-05T16:37:52.653Z,41.40
2022-11-05T16:40:27.824Z,41.40
2022-11-05T16:43:17.985Z,41.40
2022-11-05T16:46:01.007Z,41.70
2022-11-05T16:48:35.929Z,41.70
2022-11-05T16:51:11.988Z,41.80
2022-11-05T16:53:49.203Z,42.10
2022-11-05T16:56:24.122Z,42.20
2022-11-05T16:58:59.686Z,42.40
2022-11-05T17:01:35.900Z,42.50
2022-11-05T17:04:13.416Z,42.70
2022-11-05T17:06:49.850Z,43.00
2022-11-05T17:09:24.815Z,43.10
2022-11-05T17:12:00.724Z,43.30
2022-11-05T17:14:35.691Z,43.50
2022-11-05T17:17:10.855Z,43.70
2022-11-05T17:19:46.141Z,44.20
2022-11-05T17:22:21.138Z,44.60
2022-11-05T17:24:56.104Z,44.90
2022-11-05T17:27:30.959Z,45.10
2022-11-05T17:30:07.079Z,45.40
2022-11-05T17:32:42.035Z,45.70
2022-11-05T17:35:17.410Z,46.00
2022-11-05T17:37:52.351Z,46.10
2022-11-05T17:40:28.375Z,46.50
2022-11-05T17:43:04.172Z,46.70
2022-11-05T17:45:45.479Z,47.00
2022-11-05T17:48:23.688Z,47.30
2022-11-05T17:50:58.609Z,47.50
2022-11-05T17:53:33.448Z,47.60
2022-11-05T17:56:13.773Z,48.70
2022-11-05T17:58:48.794Z,48.70
2022-11-05T18:01:30.764Z,48.90
2022-11-05T18:04:08.846Z,49.10
2022-11-05T18:06:44.066Z,49.50
2022-11-05T18:09:20.347Z,50.20
2022-11-05T18:11:56.748Z,49.90
2022-11-05T18:14:31.615Z,50.00
2022-11-05T18:17:06.592Z,50.40
2022-11-05T18:19:41.500Z,50.80
2022-11-05T18:22:18.433Z,50.90
2022-11-05T18:24:54.729Z,51.10
2022-11-05T18:27:29.680Z,51.30
2022-11-05T18:30:05.097Z,51.60
2022-11-05T18:32:40.129Z,51.70
2022-11-05T18:35:15.161Z,51.80
2022-11-05T18:37:50.124Z,52.00
2022-11-05T18:40:25.112Z,52.10
2022-11-05T18:43:00.054Z,52.10
2022-11-05T18:45:35.281Z,52.20
2022-11-05T18:48:11.018Z,52.50
2022-11-05T18:50:47.558Z,52.70
2022-11-05T18:53:22.447Z,53.10
2022-11-05T18:55:57.312Z,53.50
2022-11-05T18:58:32.249Z,54.20
2022-11-05T19:01:20.485Z,54.90
2022-11-05T19:03:57.128Z,55.30
2022-11-05T19:06:32.198Z,55.60
2022-11-05T19:09:09.869Z,56.00
2022-11-05T19:11:44.772Z,56.20
2022-11-05T19:14:19.808Z,56.40
2022-11-05T19:16:54.688Z,56.50
2022-11-05T19:19:29.689Z,56.50
2022-11-05T19:22:04.878Z,56.60
2022-11-05T19:24:39.801Z,56.70
2022-11-05T19:27:14.643Z,56.60
2022-11-05T19:29:49.725Z,56.30
2022-11-05T19:32:24.629Z,56.10
2022-11-05T19:34:59.509Z,56.00
2022-11-05T19:37:34.438Z,55.80
2022-11-05T19:40:10.780Z,55.70
2022-11-05T19:42:46.839Z,55.90
2022-11-05T19:45:43.530Z,55.90
2022-11-05T19:48:19.846Z,56.30
2022-11-05T19:50:55.156Z,56.60
2022-11-05T19:53:30.039Z,56.80
2022-11-05T19:56:11.761Z,56.90
2022-11-05T19:58:49.097Z,56.70
2022-11-05T20:01:26.423Z,56.60
2022-11-05T20:04:02.684Z,56.60
2022-11-05T20:06:40.050Z,56.80
2022-11-05T20:09:21.530Z,56.90
2022-11-05T20:11:57.784Z,56.80
2022-11-05T20:14:33.332Z,56.90
2022-11-05T20:17:08.309Z,57.00
2022-11-05T20:19:43.209Z,57.00
2022-11-05T20:22:18.089Z,57.10
2022-11-05T20:24:52.956Z,57.20
2022-11-05T20:27:28.760Z,57.30
2022-11-05T20:30:04.360Z,57.30
2022-11-05T20:32:39.253Z,57.30
2022-11-05T20:35:14.143Z,57.40
2022-11-05T20:37:53.764Z,57.60
2022-11-05T20:40:29.111Z,57.80
2022-11-05T20:43:04.231Z,57.70
2022-11-05T20:45:39.193Z,57.70
2022-11-05T20:48:14.425Z,57.90
2022-11-05T20:50:52.822Z,57.90
2022-11-05T20:53:27.642Z,58.00
2022-11-05T20:56:07.630Z,58.30
2022-11-05T20:58:42.805Z,58.70
2022-11-05T21:01:18.966Z,59.30
2022-11-05T21:03:55.489Z,60.50
2022-11-05T21:06:30.639Z,61.30
2022-11-05T21:09:06.041Z,61.90
2022-11-05T21:11:59.550Z,62.30
2022-11-05T21:14:34.398Z,62.70
2022-11-05T21:17:11.871Z,63.10
2022-11-05T21:19:47.007Z,63.30
2022-11-05T21:22:21.834Z,63.40
2022-11-05T21:24:56.863Z,63.40
2022-11-05T21:27:31.684Z,63.30
2022-11-05T21:30:07.560Z,63.30
2022-11-05T21:32:42.386Z,63.70
2022-11-05T21:35:17.360Z,64.20
2022-11-05T21:37:52.223Z,64.60
2022-11-05T21:40:27.112Z,64.70
2022-11-05T21:43:02.151Z,64.80
2022-11-05T21:45:45.114Z,64.90
2022-11-05T21:48:19.974Z,64.90
2022-11-05T21:51:13.288Z,64.70
2022-11-05T21:54:06.726Z,64.50
2022-11-05T21:57:03.519Z,64.40
2022-11-05T21:59:51.390Z,64.50
2022-11-05T22:02:30.817Z,64.50
2022-11-05T22:05:06.711Z,64.80
2022-11-05T22:07:41.613Z,65.00
2022-11-05T22:10:17.153Z,65.00
2022-11-05T22:12:51.975Z,64.90
2022-11-05T22:15:26.825Z,64.90
2022-11-05T22:18:01.692Z,65.10
2022-11-05T22:20:39.148Z,65.10
2022-11-05T22:23:14.005Z,65.10
2022-11-05T22:25:48.849Z,65.10
2022-11-05T22:28:23.721Z,65.10
2022-11-05T22:30:58.627Z,65.50
2022-11-05T22:33:33.455Z,65.80
2022-11-05T22:36:09.069Z,66.00
2022-11-05T22:38:44.122Z,66.10
2022-11-05T22:41:22.440Z,66.20
2022-11-05T22:43:58.049Z,66.40
2022-11-05T22:46:33.195Z,66.40
2022-11-05T22:49:08.368Z,66.40
2022-11-05T22:51:43.907Z,66.60
2022-11-05T22:54:18.824Z,67.00
2022-11-05T22:56:53.823Z,67.40
2022-11-05T22:59:28.762Z,67.70
2022-11-05T23:02:09.244Z,67.90
2022-11-05T23:04:44.794Z,68.00
2022-11-05T23:07:38.122Z,68.00
2022-11-05T23:10:31.384Z,67.90
2022-11-05T23:13:07.585Z,67.80
2022-11-05T23:16:00.805Z,67.70
2022-11-05T23:18:54.500Z,67.70
2022-11-05T23:21:48.123Z,67.60
2022-11-05T23:24:22.976Z,67.50
2022-11-05T23:26:57.975Z,67.60
2022-11-05T23:29:33.095Z,67.80
2022-11-05T23:32:28.137Z,67.80
2022-11-05T23:35:04.336Z,68.10
2022-11-05T23:37:58.125Z,68.30
2022-11-05T23:40:55.501Z,68.40
2022-11-05T23:43:49.092Z,68.20
2022-11-05T23:46:42.502Z,68.20
2022-11-05T23:49:17.957Z,68.40
2022-11-05T23:51:52.812Z,68.40
2022-11-05T23:54:27.761Z,68.80
2022-11-05T23:57:02.614Z,69.20
2022-11-05T23:59:37.465Z,69.10
